Sheridan, Texas
Current Conditions -  °F | °C
As of 11:15 PM on Friday 28 Nov 2014 (Local Time) from K66R Reporting Station
Clear Clear  
Wind Chill: 54°   Ceiling: Unl
Heat Index: 54°   Visibility: 10mi
Dew Point: 53°   Wind: 5mph
Humidity: 95%   Direction: 170°S
Pressure: 30.13"   Gusts: NA
Location:  29.49°N, 96.67°W
Report Text: K66R 290515Z AUTO 17004KT 10SM CLR 12/11 A3013 RMK AO2 T01210114
Loading
Personal Weather Stations






























Interactive Weather Map New forecast layout! Learn more

10-Day Weather Forecast

Advertisements
Track Severe Weather on mobile